Time;durP1;ratioP1;P1;durP2;ratioP2;P2;SDS_P1;SDS_P2;PMS_P1;PMS_P2;Temp;Humidity;BMP_temperature;BMP_pressure;BME280_temperature;BME280_humidity;BME280_pressure;Samples;Min_cycle;Max_cycle;Signal;HPM_P1;HPM_P2
2021/08/09 00:01:45;;;;;;;2.78;1.20;;;19.90;76.90;;;;;;5070393;28;20024;-71
2021/08/09 00:04:10;;;;;;;2.28;1.20;;;19.90;76.90;;;;;;5071379;28;20547;-71
2021/08/09 00:06:36;;;;;;;5.13;1.40;;;19.90;77.20;;;;;;5070864;28;20032;-70
2021/08/09 00:09:02;;;;;;;2.67;1.10;;;19.90;77.00;;;;;;5052942;28;20028;-70
2021/08/09 00:11:29;;;;;;;3.00;1.40;;;19.90;76.80;;;;;;5070244;28;20445;-71
2021/08/09 00:13:55;;;;;;;2.35;1.00;;;19.80;77.00;;;;;;5071207;28;20486;-71
2021/08/09 00:16:20;;;;;;;3.40;1.20;;;19.80;77.00;;;;;;5052862;28;20123;-70
2021/08/09 00:18:46;;;;;;;2.50;1.10;;;19.80;76.90;;;;;;5071441;28;20035;-71
2021/08/09 00:21:17;;;;;;;2.70;1.13;;;19.80;77.00;;;;;;5070124;28;20031;-71
2021/08/09 00:23:43;;;;;;;2.80;1.30;;;19.90;77.00;;;;;;5071047;28;20029;-70
2021/08/09 00:26:09;;;;;;;2.47;1.02;;;19.80;77.10;;;;;;5069716;28;20113;-71
2021/08/09 00:28:35;;;;;;;2.30;1.25;;;19.80;77.30;;;;;;5053437;28;20060;-70
2021/08/09 00:31:00;;;;;;;2.90;1.30;;;19.80;76.60;;;;;;5052904;28;20120;-71
2021/08/09 00:33:26;;;;;;;3.50;1.40;;;19.80;77.00;;;;;;5053095;28;20111;-71
2021/08/09 00:35:52;;;;;;;3.38;1.33;;;19.80;77.00;;;;;;5070304;28;20025;-71
2021/08/09 00:38:17;;;;;;;3.72;1.40;;;19.80;77.30;;;;;;5071315;28;20025;-71
2021/08/09 00:40:43;;;;;;;3.80;1.20;;;19.80;77.40;;;;;;5053269;28;20119;-71
2021/08/09 00:43:08;;;;;;;2.85;1.00;;;19.80;77.30;;;;;;5071305;28;20490;-71
2021/08/09 00:45:34;;;;;;;3.13;1.42;;;19.80;77.50;;;;;;5052647;28;20029;-71
2021/08/09 00:48:00;;;;;;;2.05;1.10;;;19.80;77.30;;;;;;5052931;28;20024;-71
2021/08/09 00:50:25;;;;;;;2.15;1.00;;;19.80;77.30;;;;;;5052974;28;20124;-71
2021/08/09 00:52:51;;;;;;;3.15;1.10;;;19.80;77.40;;;;;;5070826;28;20028;-70
2021/08/09 00:55:18;;;;;;;2.53;1.00;;;19.80;77.60;;;;;;5052811;28;20104;-70
2021/08/09 00:57:44;;;;;;;3.08;1.25;;;19.70;77.30;;;;;;5070745;28;20036;-71
2021/08/09 01:00:10;;;;;;;3.65;1.30;;;19.80;77.20;;;;;;5053203;28;20439;-70
2021/08/09 01:02:36;;;;;;;4.53;1.33;;;19.80;77.50;;;;;;5070784;28;20027;-70
2021/08/09 01:05:03;;;;;;;2.45;1.08;;;19.70;77.50;;;;;;5052357;28;20032;-71
2021/08/09 01:07:34;;;;;;;3.47;1.33;;;19.80;77.50;;;;;;5055841;28;20486;-71
2021/08/09 01:10:18;;;;;;;2.75;1.20;;;19.70;77.60;;;;;;5074643;28;20416;-70
2021/08/09 01:13:19;;;;;;;2.53;1.30;;;19.80;77.50;;;;;;5074231;28;20028;-71
2021/08/09 01:15:48;;;;;;;2.90;1.10;;;19.70;77.30;;;;;;5063974;28;20032;-70
2021/08/09 01:18:15;;;;;;;3.50;1.08;;;19.70;77.50;;;;;;5036541;28;20017;-70
2021/08/09 01:20:52;;;;;;;2.58;1.20;;;19.70;77.60;;;;;;5054532;28;20025;-70
2021/08/09 01:23:27;;;;;;;3.13;1.25;;;19.80;77.60;;;;;;5036545;28;20380;-70
2021/08/09 01:25:56;;;;;;;4.13;1.40;;;19.70;77.90;;;;;;5062579;28;20056;-70
2021/08/09 01:28:27;;;;;;;3.80;1.10;;;19.70;77.90;;;;;;5074283;28;20024;-71
2021/08/09 01:30:55;;;;;;;2.28;1.15;;;19.80;78.20;;;;;;5056103;28;20028;-70
2021/08/09 01:33:22;;;;;;;4.18;1.40;;;19.70;77.90;;;;;;5056276;28;20093;-70
2021/08/09 01:35:53;;;;;;;2.67;1.13;;;19.70;77.80;;;;;;5055367;28;20025;-70
2021/08/09 01:38:20;;;;;;;2.92;1.27;;;19.70;77.90;;;;;;5056178;28;20025;-70
2021/08/09 01:40:47;;;;;;;3.65;1.40;;;19.70;77.60;;;;;;5073662;28;20081;-70
2021/08/09 01:43:13;;;;;;;2.55;1.20;;;19.70;77.90;;;;;;5056195;28;20402;-70
2021/08/09 01:45:39;;;;;;;4.55;1.60;;;19.70;77.80;;;;;;5055614;28;20498;-70
2021/08/09 01:48:06;;;;;;;3.63;1.20;;;19.70;78.00;;;;;;5055504;28;20086;-71
2021/08/09 01:50:32;;;;;;;3.95;1.48;;;19.70;78.00;;;;;;5073800;28;20064;-70
2021/08/09 01:52:58;;;;;;;2.47;1.10;;;19.70;78.50;;;;;;5073726;28;20141;-70
2021/08/09 01:55:25;;;;;;;3.33;1.23;;;19.70;78.10;;;;;;5055382;28;20505;-70
2021/08/09 01:57:50;;;;;;;3.22;1.27;;;19.70;78.00;;;;;;5073071;28;20028;-71
2021/08/09 02:00:17;;;;;;;3.25;1.20;;;19.70;77.70;;;;;;5055715;28;20031;-71
2021/08/09 02:02:43;;;;;;;3.45;1.30;;;19.70;77.70;;;;;;5073661;28;20428;-70
2021/08/09 02:05:14;;;;;;;3.47;1.50;;;19.70;78.00;;;;;;5073322;28;20402;-70
2021/08/09 02:07:43;;;;;;;2.70;1.13;;;19.70;78.20;;;;;;5073159;28;20020;-70
2021/08/09 02:10:11;;;;;;;2.30;1.02;;;19.60;78.10;;;;;;5073139;28;20040;-71
2021/08/09 02:12:43;;;;;;;3.53;1.25;;;19.60;78.00;;;;;;5073465;28;20039;-70
2021/08/09 02:15:09;;;;;;;3.08;1.25;;;19.60;78.20;;;;;;5072818;28;20032;-71
2021/08/09 02:18:12;;;;;;;2.58;1.25;;;19.60;78.20;;;;;;5086786;23;20017;-71
2021/08/09 02:20:42;;;;;;;2.55;1.00;;;19.70;78.20;;;;;;5034947;28;20033;-73
2021/08/09 02:23:12;;;;;;;4.75;1.35;;;19.60;78.10;;;;;;5052764;28;20111;-71
2021/08/09 02:25:40;;;;;;;2.10;1.15;;;19.60;78.30;;;;;;5034987;28;20482;-72
2021/08/09 02:28:18;;;;;;;3.67;1.23;;;19.60;78.20;;;;;;5041161;28;20091;-71
2021/08/09 02:30:47;;;;;;;3.30;1.00;;;19.60;78.30;;;;;;5052016;28;20043;-71
2021/08/09 02:33:13;;;;;;;3.35;1.30;;;19.60;78.40;;;;;;5051884;28;20021;-72
2021/08/09 02:35:40;;;;;;;3.10;1.30;;;19.60;78.10;;;;;;5051332;28;20017;-72
2021/08/09 02:38:07;;;;;;;3.50;1.30;;;19.60;78.50;;;;;;5051743;28;20029;-71
2021/08/09 02:40:34;;;;;;;3.13;1.33;;;19.60;78.30;;;;;;5052822;28;20028;-73
2021/08/09 02:43:00;;;;;;;1.83;1.20;;;19.60;78.20;;;;;;5051615;28;20119;-71
2021/08/09 02:45:27;;;;;;;10.00;1.40;;;19.60;78.40;;;;;;5052571;28;20032;-71
2021/08/09 02:47:53;;;;;;;5.22;1.80;;;19.60;78.40;;;;;;5034146;28;20071;-71
2021/08/09 02:50:19;;;;;;;4.10;1.58;;;19.60;78.30;;;;;;5052177;28;20036;-73
2021/08/09 02:52:45;;;;;;;3.92;1.45;;;19.60;78.40;;;;;;5048096;28;20363;-71
2021/08/09 02:55:14;;;;;;;3.55;1.20;;;19.60;78.30;;;;;;5033999;28;20051;-73
2021/08/09 02:57:39;;;;;;;2.85;1.35;;;19.60;78.40;;;;;;5030943;28;20520;-71
2021/08/09 03:00:06;;;;;;;2.90;1.30;;;19.60;78.40;;;;;;5032730;28;20061;-71
2021/08/09 03:02:37;;;;;;;2.70;1.00;;;19.60;78.40;;;;;;5048712;28;20013;-71
2021/08/09 03:05:05;;;;;;;3.00;1.30;;;19.60;78.40;;;;;;5052183;28;20039;-73
2021/08/09 03:07:32;;;;;;;4.65;1.25;;;19.60;78.40;;;;;;5049158;28;20401;-71
2021/08/09 03:09:58;;;;;;;2.55;1.20;;;19.60;78.40;;;;;;5036782;28;20056;-74
2021/08/09 03:12:26;;;;;;;3.53;1.27;;;19.60;79.00;;;;;;5035537;28;20112;-70
2021/08/09 03:14:52;;;;;;;2.25;1.10;;;19.60;79.00;;;;;;5016574;28;20036;-70
2021/08/09 03:17:18;;;;;;;3.88;1.30;;;19.60;78.70;;;;;;5016516;28;20029;-73
2021/08/09 03:19:44;;;;;;;4.15;1.40;;;19.60;78.90;;;;;;5035519;28;20041;-69
2021/08/09 03:22:10;;;;;;;2.47;1.00;;;19.60;78.60;;;;;;5036936;28;20040;-68
2021/08/09 03:24:37;;;;;;;2.38;1.10;;;19.60;78.60;;;;;;5034772;28;20028;-69
2021/08/09 03:27:03;;;;;;;2.95;1.40;;;19.60;78.70;;;;;;5036026;28;20049;-70
2021/08/09 03:29:29;;;;;;;2.90;1.20;;;19.60;78.60;;;;;;5016239;28;20025;-69
2021/08/09 03:31:55;;;;;;;2.95;1.23;;;19.60;78.50;;;;;;5035772;28;20028;-69
2021/08/09 03:34:21;;;;;;;3.70;1.30;;;19.60;78.60;;;;;;5035094;28;20560;-69
2021/08/09 03:36:47;;;;;;;2.28;1.33;;;19.60;78.70;;;;;;5015884;28;20057;-69
2021/08/09 03:39:16;;;;;;;3.05;1.05;;;19.60;78.70;;;;;;5032727;28;20021;-70
2021/08/09 03:41:42;;;;;;;4.00;1.58;;;19.60;78.80;;;;;;5034686;28;20800;-74
2021/08/09 03:44:08;;;;;;;4.38;1.70;;;19.60;78.80;;;;;;5035255;28;20758;-71
2021/08/09 03:46:34;;;;;;;5.45;1.38;;;19.60;79.10;;;;;;5015261;28;20029;-70
2021/08/09 03:49:03;;;;;;;8.13;2.40;;;19.60;79.30;;;;;;5037485;28;20483;-71
2021/08/09 03:51:29;;;;;;;9.18;2.65;;;19.60;79.90;;;;;;5034778;28;20017;-73
2021/08/09 03:53:54;;;;;;;7.57;2.30;;;19.60;80.40;;;;;;5032466;28;20151;-70
2021/08/09 03:56:20;;;;;;;7.10;2.53;;;19.60;80.30;;;;;;5014337;28;20021;-71
2021/08/09 03:58:45;;;;;;;9.82;2.28;;;19.60;80.40;;;;;;5047210;28;20483;-70
2021/08/09 04:01:11;;;;;;;5.88;2.00;;;19.60;80.40;;;;;;5050369;28;20101;-71
2021/08/09 04:03:37;;;;;;;8.48;2.08;;;19.60;80.00;;;;;;5049690;28;20025;-71
2021/08/09 04:06:02;;;;;;;5.65;1.70;;;19.60;80.60;;;;;;5050987;28;20390;-70
2021/08/09 04:08:28;;;;;;;5.32;1.75;;;19.60;80.70;;;;;;5050521;28;20035;-71
2021/08/09 04:10:53;;;;;;;5.57;2.33;;;19.60;80.60;;;;;;5033246;28;20505;-69
2021/08/09 04:13:19;;;;;;;5.28;1.60;;;19.50;80.50;;;;;;5050442;28;20071;-69
2021/08/09 04:15:45;;;;;;;4.70;1.73;;;19.60;80.50;;;;;;5051062;28;20025;-69
2021/08/09 04:18:11;;;;;;;7.05;1.92;;;19.60;80.40;;;;;;5050989;28;20033;-68
2021/08/09 04:20:37;;;;;;;6.38;1.80;;;19.60;80.40;;;;;;5050034;28;20552;-69
2021/08/09 04:23:03;;;;;;;5.00;1.67;;;19.50;80.60;;;;;;5051132;28;20032;-69
2021/08/09 04:25:29;;;;;;;3.88;1.35;;;19.60;80.50;;;;;;5033218;28;20029;-69
2021/08/09 04:27:54;;;;;;;8.05;1.65;;;19.60;80.60;;;;;;5033173;28;20029;-70
2021/08/09 04:30:20;;;;;;;5.30;2.03;;;19.60;80.60;;;;;;5049883;28;20092;-68
2021/08/09 04:32:45;;;;;;;5.63;1.52;;;19.50;80.60;;;;;;5033251;28;20036;-68
2021/08/09 04:35:12;;;;;;;3.78;1.38;;;19.60;80.60;;;;;;5033225;28;20368;-71
2021/08/09 04:37:39;;;;;;;4.80;1.63;;;19.60;80.60;;;;;;5050584;28;20028;-69
2021/08/09 04:40:05;;;;;;;8.43;1.80;;;19.60;80.70;;;;;;5050949;28;20087;-69
2021/08/09 04:42:32;;;;;;;6.25;1.70;;;19.60;80.40;;;;;;5054393;28;20413;-69
2021/08/09 04:44:58;;;;;;;5.68;1.40;;;19.60;80.60;;;;;;5053584;28;20120;-69
2021/08/09 04:47:23;;;;;;;7.18;1.52;;;19.60;80.80;;;;;;5054336;28;20542;-68
2021/08/09 04:49:49;;;;;;;10.90;2.05;;;19.50;80.80;;;;;;5034907;28;20450;-70
2021/08/09 04:52:15;;;;;;;5.35;1.67;;;19.50;80.70;;;;;;5043677;28;20051;-68
2021/08/09 04:54:41;;;;;;;4.68;1.58;;;19.50;80.70;;;;;;5036556;28;20043;-70
2021/08/09 04:57:07;;;;;;;8.63;2.08;;;19.60;80.50;;;;;;5045699;28;20068;-68
2021/08/09 04:59:32;;;;;;;8.45;1.73;;;19.50;80.30;;;;;;5036897;28;20071;-69
2021/08/09 05:01:57;;;;;;;2.88;1.30;;;19.60;79.80;;;;;;5036521;28;20021;-69
2021/08/09 05:04:23;;;;;;;6.63;1.50;;;19.50;80.10;;;;;;5036479;28;20421;-70
2021/08/09 05:06:49;;;;;;;4.70;1.50;;;19.60;79.90;;;;;;5036666;28;20025;-68
2021/08/09 05:09:15;;;;;;;4.75;1.60;;;19.50;79.60;;;;;;5053475;28;20082;-68
2021/08/09 05:11:41;;;;;;;4.65;1.33;;;19.50;79.70;;;;;;5052400;28;20052;-68
2021/08/09 05:14:06;;;;;;;4.53;1.67;;;19.50;79.50;;;;;;5052769;28;20021;-69
2021/08/09 05:16:36;;;;;;;4.40;1.52;;;19.50;79.20;;;;;;5028991;28;20021;-68
2021/08/09 05:19:03;;;;;;;5.38;1.70;;;19.50;79.60;;;;;;5053438;28;20455;-68
2021/08/09 05:21:33;;;;;;;4.53;1.55;;;19.50;79.00;;;;;;5053786;28;20025;-69
2021/08/09 05:24:00;;;;;;;5.40;1.50;;;19.50;78.70;;;;;;5053760;28;20025;-68
2021/08/09 05:26:25;;;;;;;3.45;1.50;;;19.60;78.50;;;;;;5053044;28;20025;-68
2021/08/09 05:28:51;;;;;;;3.95;1.30;;;19.50;78.50;;;;;;5053652;28;20036;-69
2021/08/09 05:31:16;;;;;;;3.88;1.45;;;19.50;78.30;;;;;;5054022;28;20390;-69
2021/08/09 05:33:42;;;;;;;3.53;1.58;;;19.50;78.20;;;;;;5036361;28;20032;-70
2021/08/09 05:36:08;;;;;;;6.57;1.80;;;19.50;78.00;;;;;;5053481;28;20344;-69
2021/08/09 05:38:34;;;;;;;4.03;1.58;;;19.50;77.90;;;;;;5035347;28;20031;-69
2021/08/09 05:41:01;;;;;;;5.03;1.67;;;19.50;77.70;;;;;;5053940;28;20033;-69
2021/08/09 05:43:27;;;;;;;4.68;1.58;;;19.50;77.60;;;;;;5053712;28;20426;-68
2021/08/09 05:45:52;;;;;;;4.55;1.60;;;19.50;77.50;;;;;;5053330;28;20039;-69
2021/08/09 05:48:18;;;;;;;4.90;1.48;;;19.50;77.50;;;;;;5053408;28;20037;-67
2021/08/09 05:50:43;;;;;;;4.38;1.60;;;19.50;77.30;;;;;;5053748;28;20445;-68
2021/08/09 05:53:09;;;;;;;4.60;1.40;;;19.50;77.10;;;;;;5053123;28;20021;-68
2021/08/09 05:55:34;;;;;;;4.55;1.55;;;19.50;77.10;;;;;;5053001;28;20028;-69
2021/08/09 05:58:00;;;;;;;4.20;1.40;;;19.60;76.70;;;;;;5053089;28;20032;-68
2021/08/09 06:00:25;;;;;;;4.85;1.40;;;19.50;76.70;;;;;;5048687;28;20475;-68
2021/08/09 06:02:51;;;;;;;4.45;1.45;;;19.50;76.70;;;;;;5049839;28;20029;-70
2021/08/09 06:05:17;;;;;;;3.88;1.52;;;19.50;76.70;;;;;;5034698;28;20487;-69
2021/08/09 06:07:42;;;;;;;3.70;1.35;;;19.50;76.50;;;;;;5052891;28;20021;-69
2021/08/09 06:10:08;;;;;;;4.22;1.60;;;19.50;76.40;;;;;;5053142;28;20024;-69
2021/08/09 06:12:36;;;;;;;3.92;1.30;;;19.60;76.40;;;;;;5053449;28;20067;-69
2021/08/09 06:15:03;;;;;;;4.28;1.50;;;19.60;76.30;;;;;;5053192;28;20020;-68
2021/08/09 06:17:28;;;;;;;3.88;1.42;;;19.60;76.10;;;;;;5052993;28;20047;-68
2021/08/09 06:19:54;;;;;;;4.53;1.67;;;19.60;76.00;;;;;;5035228;28;20120;-69
2021/08/09 06:22:19;;;;;;;4.38;1.45;;;19.60;76.10;;;;;;5049499;28;20033;-69
2021/08/09 06:24:45;;;;;;;3.10;1.20;;;19.60;75.90;;;;;;5015273;28;20025;-68
2021/08/09 06:27:10;;;;;;;5.47;1.60;;;19.60;75.80;;;;;;5033262;28;20017;-68
2021/08/09 06:29:36;;;;;;;5.50;1.67;;;19.60;75.80;;;;;;5015395;28;20491;-68
2021/08/09 06:32:01;;;;;;;5.32;1.70;;;19.60;75.70;;;;;;5015417;28;20017;-68
2021/08/09 06:34:27;;;;;;;5.32;1.35;;;19.70;75.60;;;;;;5014892;28;20059;-68
2021/08/09 06:36:52;;;;;;;6.32;1.67;;;19.70;75.20;;;;;;5033140;28;20025;-68
2021/08/09 06:39:19;;;;;;;4.43;1.70;;;19.70;75.00;;;;;;5032963;28;20025;-68
2021/08/09 06:41:46;;;;;;;4.40;1.63;;;19.70;75.00;;;;;;5015338;28;20029;-68
2021/08/09 06:44:12;;;;;;;4.88;2.00;;;19.80;74.60;;;;;;5032839;28;20465;-69
2021/08/09 06:46:37;;;;;;;6.72;1.50;;;20.00;73.90;;;;;;5032695;28;20025;-68
2021/08/09 06:49:04;;;;;;;3.42;1.40;;;20.20;73.10;;;;;;5014927;28;20056;-68
2021/08/09 06:51:30;;;;;;;4.00;1.50;;;20.30;72.20;;;;;;5032725;28;20112;-68
2021/08/09 06:53:55;;;;;;;5.28;1.60;;;20.40;71.80;;;;;;5032657;28;20113;-68
2021/08/09 06:56:21;;;;;;;7.13;1.75;;;20.50;71.40;;;;;;5014641;28;20489;-68
2021/08/09 06:58:46;;;;;;;6.32;1.90;;;20.50;70.80;;;;;;5035593;28;20022;-69
2021/08/09 07:01:12;;;;;;;4.03;1.58;;;20.60;70.10;;;;;;5052632;28;20040;-68
2021/08/09 07:03:38;;;;;;;4.78;1.75;;;20.70;70.10;;;;;;5033761;28;20025;-68
2021/08/09 07:06:03;;;;;;;4.47;1.45;;;20.60;69.90;;;;;;5034285;28;20025;-68
2021/08/09 07:08:29;;;;;;;4.40;1.80;;;20.60;70.10;;;;;;5033944;28;20506;-68
2021/08/09 07:10:54;;;;;;;5.45;1.70;;;20.60;69.80;;;;;;5052093;28;20021;-68
2021/08/09 07:13:20;;;;;;;5.93;1.63;;;20.60;69.40;;;;;;5051973;28;20021;-67
2021/08/09 07:15:46;;;;;;;5.28;1.50;;;20.60;69.20;;;;;;5051875;28;20478;-69
2021/08/09 07:18:13;;;;;;;4.03;1.40;;;20.60;69.10;;;;;;5051798;28;20403;-69
2021/08/09 07:20:39;;;;;;;5.75;1.70;;;20.60;69.20;;;;;;5051348;28;20025;-69
2021/08/09 07:23:04;;;;;;;4.97;1.60;;;20.50;69.40;;;;;;5026272;28;20025;-70
2021/08/09 07:25:32;;;;;;;4.25;1.90;;;20.60;69.70;;;;;;5024619;28;20072;-70
2021/08/09 07:27:58;;;;;;;5.93;2.25;;;20.50;70.50;;;;;;5020192;28;20035;-69
2021/08/09 07:30:23;;;;;;;5.40;1.50;;;20.50;70.00;;;;;;5043872;28;20028;-70
2021/08/09 07:32:49;;;;;;;7.22;2.08;;;20.50;70.40;;;;;;5025958;28;20021;-69
2021/08/09 07:35:14;;;;;;;6.88;1.85;;;20.50;70.60;;;;;;5049770;28;20025;-69
2021/08/09 07:37:40;;;;;;;3.85;1.38;;;20.60;70.30;;;;;;5034010;28;20025;-69
2021/08/09 07:40:07;;;;;;;4.82;1.50;;;20.60;69.70;;;;;;5046788;28;20060;-69
2021/08/09 07:42:32;;;;;;;6.07;1.70;;;20.60;70.00;;;;;;5051805;28;20025;-69
2021/08/09 07:44:58;;;;;;;6.78;1.98;;;20.60;69.70;;;;;;5047468;28;20483;-70
2021/08/09 07:47:24;;;;;;;5.70;1.50;;;20.50;69.70;;;;;;5040303;28;20022;-71
2021/08/09 07:49:49;;;;;;;4.18;1.63;;;20.60;69.90;;;;;;5031715;28;20030;-68
2021/08/09 07:52:15;;;;;;;4.97;1.63;;;20.60;69.70;;;;;;5047888;28;20092;-69
2021/08/09 07:54:40;;;;;;;5.88;1.50;;;20.60;69.90;;;;;;5039128;28;20419;-70
2021/08/09 07:57:06;;;;;;;5.00;1.52;;;20.60;70.40;;;;;;5044357;28;20064;-70
2021/08/09 07:59:32;;;;;;;4.20;1.50;;;20.60;70.50;;;;;;5039272;28;20032;-70
2021/08/09 08:02:01;;;;;;;7.03;1.90;;;20.60;70.60;;;;;;5033664;28;20025;-69
2021/08/09 08:04:27;;;;;;;5.80;1.40;;;20.60;70.80;;;;;;5026458;28;20052;-70
2021/08/09 08:06:52;;;;;;;4.75;1.73;;;20.50;71.10;;;;;;5039577;28;20060;-69
2021/08/09 08:09:18;;;;;;;6.07;1.60;;;20.50;71.50;;;;;;5036967;28;20060;-70
2021/08/09 08:11:43;;;;;;;5.43;1.55;;;20.50;71.50;;;;;;5036876;28;20518;-69
2021/08/09 08:14:09;;;;;;;7.72;1.75;;;20.50;71.80;;;;;;5048977;28;20025;-69
2021/08/09 08:16:34;;;;;;;6.85;1.75;;;20.50;72.00;;;;;;5054820;28;20032;-70
2021/08/09 08:19:01;;;;;;;3.63;1.42;;;20.50;72.30;;;;;;5082116;22;20413;-68
2021/08/09 08:21:26;;;;;;;5.10;1.70;;;20.50;72.40;;;;;;5073061;28;20030;-69
2021/08/09 08:23:52;;;;;;;5.65;2.00;;;20.50;72.60;;;;;;5087290;28;20032;-69
2021/08/09 08:26:17;;;;;;;5.18;1.50;;;20.50;72.70;;;;;;5091598;28;20033;-69
2021/08/09 08:28:43;;;;;;;6.70;1.42;;;20.50;72.60;;;;;;5051167;28;20036;-68
2021/08/09 08:31:08;;;;;;;6.78;1.42;;;20.50;72.30;;;;;;5036980;28;20044;-69
2021/08/09 08:33:34;;;;;;;3.83;1.48;;;20.50;72.10;;;;;;5054236;28;20408;-69
2021/08/09 08:35:59;;;;;;;4.30;1.48;;;20.50;72.50;;;;;;5056433;28;20070;-69
2021/08/09 08:38:25;;;;;;;5.00;1.73;;;20.50;72.40;;;;;;5075128;28;20382;-68
2021/08/09 08:40:52;;;;;;;5.18;1.50;;;20.50;72.30;;;;;;5075227;28;20024;-69
2021/08/09 08:43:25;;;;;;;5.38;1.85;;;20.50;72.10;;;;;;5075239;28;20032;-68
2021/08/09 08:45:56;;;;;;;4.90;1.40;;;20.50;72.00;;;;;;5074962;28;20506;-68
2021/08/09 08:48:23;;;;;;;5.15;1.70;;;20.50;72.00;;;;;;5057068;28;20032;-69
2021/08/09 08:50:50;;;;;;;4.15;1.45;;;20.40;72.10;;;;;;5074459;28;20032;-68
2021/08/09 08:53:16;;;;;;;3.92;1.52;;;20.50;72.70;;;;;;5056837;28;20032;-68
2021/08/09 08:55:41;;;;;;;3.92;1.33;;;20.50;71.70;;;;;;5052832;28;20402;-69
2021/08/09 08:58:07;;;;;;;4.13;1.55;;;20.50;71.70;;;;;;5074252;28;20035;-69
2021/08/09 09:00:37;;;;;;;4.93;1.80;;;20.50;71.50;;;;;;5074654;28;20067;-69
2021/08/09 09:03:15;;;;;;;7.13;1.60;;;20.50;71.50;;;;;;5052133;28;20025;-69
2021/08/09 09:05:41;;;;;;;3.92;1.23;;;20.50;71.30;;;;;;5058472;28;20375;-69
2021/08/09 09:08:06;;;;;;;4.85;1.63;;;20.50;71.80;;;;;;5046249;28;20055;-68
2021/08/09 09:10:36;;;;;;;3.95;1.50;;;20.50;71.60;;;;;;5070746;28;20029;-70
2021/08/09 09:13:17;;;;;;;5.85;1.35;;;20.50;71.60;;;;;;5074560;28;20029;-70
2021/08/09 09:16:07;;;;;;;5.07;1.85;;;20.50;71.70;;;;;;5055725;28;20066;-69
2021/08/09 09:19:02;;;;;;;;;;;20.50;71.50;;;;;;5067441;28;20035;-68
2021/08/09 09:21:32;;;;;;;4.78;1.50;;;20.50;71.70;;;;;;5057095;28;19908;-69
2021/08/09 09:24:18;;;;;;;5.47;1.70;;;20.50;71.70;;;;;;5074235;28;20021;-69
2021/08/09 09:26:51;;;;;;;5.97;1.77;;;20.50;71.80;;;;;;5073139;28;20108;-69
2021/08/09 09:29:18;;;;;;;5.63;1.70;;;20.50;71.70;;;;;;5074303;28;20566;-68
2021/08/09 09:31:45;;;;;;;5.43;1.70;;;20.50;71.70;;;;;;5074138;28;20486;-69
2021/08/09 09:34:14;;;;;;;6.32;2.33;;;20.50;71.80;;;;;;5074151;28;20112;-69
2021/08/09 09:36:57;;;;;;;6.13;1.52;;;20.50;71.90;;;;;;5056329;28;20460;-69
2021/08/09 09:39:38;;;;;;;6.35;1.52;;;20.50;71.50;;;;;;5065173;28;20029;-69
2021/08/09 09:42:12;;;;;;;4.53;1.48;;;20.40;71.20;;;;;;5058031;28;20028;-68
2021/08/09 09:44:39;;;;;;;5.78;1.52;;;20.40;71.00;;;;;;5071472;28;20103;-69
2021/08/09 09:47:21;;;;;;;6.40;1.77;;;20.50;70.80;;;;;;5056055;28;20529;-68
2021/08/09 09:49:51;;;;;;;6.72;1.75;;;20.50;70.50;;;;;;5046466;28;20043;-69
2021/08/09 09:52:45;;;;;;;3.75;1.30;;;20.50;70.10;;;;;;5055329;28;20021;-69
2021/08/09 09:55:12;;;;;;;4.35;1.60;;;20.60;69.90;;;;;;5053841;28;20021;-69
2021/08/09 09:57:39;;;;;;;7.90;1.58;;;20.60;69.90;;;;;;5051246;28;20031;-71
2021/08/09 10:00:11;;;;;;;4.88;1.45;;;20.60;70.40;;;;;;5045516;28;20028;-71
2021/08/09 10:02:38;;;;;;;3.97;1.40;;;20.70;70.50;;;;;;5064337;28;20127;-70
2021/08/09 10:05:04;;;;;;;4.53;1.20;;;20.80;70.20;;;;;;5069926;28;20570;-72
2021/08/09 10:07:31;;;;;;;3.50;1.15;;;20.90;70.20;;;;;;5070330;28;20112;-71
2021/08/09 10:09:59;;;;;;;3.55;1.20;;;21.00;70.10;;;;;;5043027;28;20433;-69
2021/08/09 10:12:28;;;;;;;5.22;1.40;;;21.00;70.00;;;;;;5072204;28;20020;-69
2021/08/09 10:14:54;;;;;;;3.63;1.42;;;21.00;70.00;;;;;;5072330;28;20028;-70
2021/08/09 10:17:23;;;;;;;4.65;1.15;;;21.00;70.20;;;;;;5061218;28;20106;-71
2021/08/09 10:19:56;;;;;;;4.13;1.40;;;21.10;69.80;;;;;;5047406;28;20435;-70
2021/08/09 10:22:22;;;;;;;4.35;1.40;;;21.10;70.00;;;;;;5071542;28;20021;-70
2021/08/09 10:24:51;;;;;;;3.70;1.10;;;21.20;69.60;;;;;;5071060;28;20021;-70
2021/08/09 10:27:16;;;;;;;2.60;1.35;;;21.20;69.50;;;;;;5070237;28;20051;-71
2021/08/09 10:30:18;;;;;;;4.47;1.30;;;21.20;69.30;;;;;;5066044;28;20067;-68
2021/08/09 10:32:52;;;;;;;4.50;1.17;;;21.10;69.80;;;;;;5034936;28;20036;-70
2021/08/09 10:35:34;;;;;;;4.57;1.27;;;21.20;70.00;;;;;;5062094;28;20032;-68
2021/08/09 10:38:20;;;;;;;4.53;1.38;;;21.20;69.60;;;;;;5051119;28;20112;-68
2021/08/09 10:40:47;;;;;;;6.55;1.20;;;21.20;70.00;;;;;;5071535;28;20082;-70
2021/08/09 10:43:14;;;;;;;3.58;1.40;;;21.20;69.60;;;;;;5071390;28;20432;-71
2021/08/09 10:45:45;;;;;;;2.35;1.02;;;21.30;69.40;;;;;;5070071;28;20028;-70
2021/08/09 10:48:12;;;;;;;2.90;1.27;;;21.30;69.20;;;;;;5070244;28;20024;-71
2021/08/09 10:50:41;;;;;;;5.18;1.20;;;21.30;69.30;;;;;;5053309;28;20033;-70
2021/08/09 10:53:24;;;;;;;5.53;1.38;;;21.30;69.60;;;;;;5070628;28;20028;-71
2021/08/09 10:56:00;;;;;;;12.35;2.15;;;21.30;69.40;;;;;;5071186;28;20239;-69
2021/08/09 10:58:41;;;;;;;3.97;1.20;;;21.30;69.50;;;;;;5070450;28;20024;-69
2021/08/09 11:01:06;;;;;;;;;;;21.40;70.00;;;;;;5071487;28;20028;-69
2021/08/09 11:03:32;;;;;;;41.08;4.18;;;21.50;69.20;;;;;;5052776;28;19915;-68
2021/08/09 11:05:57;;;;;;;13.35;2.05;;;21.50;69.00;;;;;;5069557;28;20299;-69
2021/08/09 11:08:23;;;;;;;15.13;2.45;;;21.50;68.70;;;;;;5070476;28;20041;-69
2021/08/09 11:10:51;;;;;;;13.45;2.20;;;21.60;68.90;;;;;;5059182;28;20376;-70
2021/08/09 11:13:17;;;;;;;7.75;1.40;;;21.60;69.10;;;;;;5069197;28;20103;-70
2021/08/09 11:15:53;;;;;;;9.88;1.63;;;21.50;69.10;;;;;;5052495;28;20024;-68
2021/08/09 11:18:19;;;;;;;8.10;1.40;;;21.40;68.90;;;;;;5071472;28;20093;-68
2021/08/09 11:20:44;;;;;;;8.18;1.85;;;21.30;68.80;;;;;;5052859;28;20489;-71
2021/08/09 11:23:12;;;;;;;6.13;1.40;;;21.20;69.70;;;;;;5047825;28;20032;-70
2021/08/09 11:25:46;;;;;;;10.80;1.85;;;21.20;69.80;;;;;;5070835;28;20020;-69
2021/08/09 11:28:13;;;;;;;6.40;1.40;;;21.20;69.60;;;;;;5070002;28;20048;-70
2021/08/09 11:31:05;;;;;;;8.15;1.77;;;21.30;69.20;;;;;;5058748;28;20403;-70
2021/08/09 11:33:39;;;;;;;8.45;1.30;;;21.30;69.10;;;;;;5031241;28;20123;-70
2021/08/09 11:36:13;;;;;;;4.60;1.38;;;21.40;69.30;;;;;;5069497;28;20024;-70
2021/08/09 11:38:52;;;;;;;4.85;1.40;;;21.40;69.20;;;;;;5051675;28;20052;-71
2021/08/09 11:41:19;;;;;;;2.65;1.20;;;21.30;68.80;;;;;;5069870;28;20063;-71
2021/08/09 11:43:46;;;;;;;3.25;1.10;;;21.30;68.50;;;;;;5060389;28;20064;-71
2021/08/09 11:46:14;;;;;;;4.15;1.27;;;21.30;68.70;;;;;;5051309;28;20033;-71
2021/08/09 11:48:42;;;;;;;6.88;1.20;;;21.30;68.20;;;;;;5069754;28;20024;-70
2021/08/09 11:51:23;;;;;;;5.22;1.17;;;21.40;68.50;;;;;;5051338;28;20041;-71
2021/08/09 11:53:50;;;;;;;6.05;1.10;;;21.30;68.40;;;;;;5069692;28;20033;-71
2021/08/09 11:56:20;;;;;;;2.90;0.93;;;21.30;68.50;;;;;;5069640;28;20037;-70
2021/08/09 11:58:45;;;;;;;2.47;0.90;;;21.40;68.40;;;;;;5051610;28;20016;-70
2021/08/09 12:01:33;;;;;;;2.50;1.02;;;21.40;68.30;;;;;;5052312;28;20439;-70
2021/08/09 12:04:22;;;;;;;2.72;1.10;;;21.30;68.00;;;;;;5070106;28;20457;-71
2021/08/09 12:06:47;;;;;;;4.35;1.00;;;21.30;67.80;;;;;;5041839;28;20579;-70
2021/08/09 12:09:16;;;;;;;2.63;1.20;;;21.40;67.90;;;;;;5069243;28;20020;-70
2021/08/09 12:11:42;;;;;;;4.75;1.33;;;21.30;67.90;;;;;;5069954;28;20033;-70
2021/08/09 12:14:13;;;;;;;3.33;1.00;;;21.30;67.90;;;;;;5070283;28;20039;-70
2021/08/09 12:16:44;;;;;;;4.18;1.10;;;21.40;68.00;;;;;;5051076;28;20024;-70
2021/08/09 12:19:12;;;;;;;4.28;1.20;;;21.40;68.10;;;;;;5051432;28;20024;-70
2021/08/09 12:21:38;;;;;;;5.45;1.30;;;21.40;68.10;;;;;;5070200;28;20115;-70
2021/08/09 12:24:04;;;;;;;3.97;1.30;;;21.40;68.20;;;;;;5041798;28;20120;-70
2021/08/09 12:26:33;;;;;;;5.80;1.10;;;21.40;68.30;;;;;;5050704;28;20036;-70
2021/08/09 12:29:01;;;;;;;3.33;1.15;;;21.40;68.10;;;;;;5060460;28;20025;-70
2021/08/09 12:31:31;;;;;;;4.95;1.55;;;21.40;68.20;;;;;;5061142;28;20033;-71
2021/08/09 12:34:08;;;;;;;6.68;1.30;;;21.40;68.50;;;;;;5069924;28;20025;-71
2021/08/09 12:36:35;;;;;;;5.35;1.17;;;21.40;68.60;;;;;;5069756;28;20021;-72
2021/08/09 12:39:01;;;;;;;2.22;0.93;;;21.40;68.50;;;;;;5069104;28;20024;-70
2021/08/09 12:41:29;;;;;;;6.95;1.30;;;21.40;68.50;;;;;;5051747;28;20498;-70
2021/08/09 12:43:56;;;;;;;4.20;1.20;;;21.30;68.60;;;;;;5069420;28;20498;-71
2021/08/09 12:46:22;;;;;;;7.55;1.85;;;21.30;68.70;;;;;;5068407;28;21726;-70
2021/08/09 12:48:51;;;;;;;6.30;1.42;;;21.30;68.70;;;;;;5069507;28;20025;-70
2021/08/09 12:51:17;;;;;;;13.70;3.17;;;21.30;69.20;;;;;;5069550;28;20443;-70
2021/08/09 12:53:43;;;;;;;6.18;1.23;;;21.20;68.60;;;;;;5069073;28;20029;-70